sensor_id;sensor_type;location;lat;lon;timestamp;P1;durP1;ratioP1;P2;durP2;ratioP2
19617;SDS011;9956;51.006;13.670;2023-11-19T00:01:32;14.05;;;11.10;;
19617;SDS011;9956;51.006;13.670;2023-11-19T00:06:33;15.52;;;13.32;;
19617;SDS011;9956;51.006;13.670;2023-11-19T00:11:33;21.67;;;15.07;;
19617;SDS011;9956;51.006;13.670;2023-11-19T00:16:34;22.88;;;16.08;;
19617;SDS011;9956;51.006;13.670;2023-11-19T00:21:34;23.58;;;17.40;;
19617;SDS011;9956;51.006;13.670;2023-11-19T00:26:36;22.05;;;15.55;;
19617;SDS011;9956;51.006;13.670;2023-11-19T00:31:37;26.52;;;18.60;;
19617;SDS011;9956;51.006;13.670;2023-11-19T00:36:38;25.17;;;17.83;;
19617;SDS011;9956;51.006;13.670;2023-11-19T00:41:39;24.83;;;16.00;;
19617;SDS011;9956;51.006;13.670;2023-11-19T00:46:40;23.25;;;16.75;;
19617;SDS011;9956;51.006;13.670;2023-11-19T00:51:40;23.25;;;16.85;;
19617;SDS011;9956;51.006;13.670;2023-11-19T00:56:41;24.85;;;16.63;;
19617;SDS011;9956;51.006;13.670;2023-11-19T01:01:41;20.15;;;14.50;;
19617;SDS011;9956;51.006;13.670;2023-11-19T01:06:45;21.40;;;15.00;;
19617;SDS011;9956;51.006;13.670;2023-11-19T01:11:46;19.02;;;13.50;;
19617;SDS011;9956;51.006;13.670;2023-11-19T01:16:46;13.55;;;11.07;;
19617;SDS011;9956;51.006;13.670;2023-11-19T01:21:47;10.48;;;8.70;;
19617;SDS011;9956;51.006;13.670;2023-11-19T01:26:48;9.93;;;7.63;;
19617;SDS011;9956;51.006;13.670;2023-11-19T01:31:49;8.63;;;6.78;;
19617;SDS011;9956;51.006;13.670;2023-11-19T01:36:53;6.22;;;5.43;;
19617;SDS011;9956;51.006;13.670;2023-11-19T01:41:53;6.18;;;5.13;;
19617;SDS011;9956;51.006;13.670;2023-11-19T01:46:54;7.95;;;4.50;;
19617;SDS011;9956;51.006;13.670;2023-11-19T01:51:55;4.47;;;4.07;;
19617;SDS011;9956;51.006;13.670;2023-11-19T01:56:58;4.07;;;3.60;;
19617;SDS011;9956;51.006;13.670;2023-11-19T02:01:58;4.15;;;3.85;;
19617;SDS011;9956;51.006;13.670;2023-11-19T02:06:59;4.78;;;4.38;;
19617;SDS011;9956;51.006;13.670;2023-11-19T02:11:59;5.38;;;4.82;;
19617;SDS011;9956;51.006;13.670;2023-11-19T02:17:00;6.70;;;5.70;;
19617;SDS011;9956;51.006;13.670;2023-11-19T02:22:00;7.13;;;6.03;;
19617;SDS011;9956;51.006;13.670;2023-11-19T02:27:10;8.55;;;7.32;;
19617;SDS011;9956;51.006;13.670;2023-11-19T02:32:16;9.27;;;7.93;;
19617;SDS011;9956;51.006;13.670;2023-11-19T02:37:16;8.60;;;7.63;;
19617;SDS011;9956;51.006;13.670;2023-11-19T02:42:19;7.22;;;6.25;;
19617;SDS011;9956;51.006;13.670;2023-11-19T02:47:22;6.78;;;6.07;;
19617;SDS011;9956;51.006;13.670;2023-11-19T02:52:24;6.53;;;5.93;;
19617;SDS011;9956;51.006;13.670;2023-11-19T02:57:25;5.93;;;5.32;;
19617;SDS011;9956;51.006;13.670;2023-11-19T03:02:28;6.00;;;5.43;;
19617;SDS011;9956;51.006;13.670;2023-11-19T03:07:33;5.88;;;5.28;;
19617;SDS011;9956;51.006;13.670;2023-11-19T03:12:34;5.47;;;4.97;;
19617;SDS011;9956;51.006;13.670;2023-11-19T03:17:38;6.45;;;5.28;;
19617;SDS011;9956;51.006;13.670;2023-11-19T03:22:41;5.57;;;5.07;;
19617;SDS011;9956;51.006;13.670;2023-11-19T03:27:42;5.18;;;4.68;;
19617;SDS011;9956;51.006;13.670;2023-11-19T03:32:42;5.47;;;4.95;;
19617;SDS011;9956;51.006;13.670;2023-11-19T03:37:43;5.03;;;4.63;;
19617;SDS011;9956;51.006;13.670;2023-11-19T03:42:43;4.60;;;4.15;;
19617;SDS011;9956;51.006;13.670;2023-11-19T03:47:45;4.05;;;3.75;;
19617;SDS011;9956;51.006;13.670;2023-11-19T03:52:46;3.90;;;3.50;;
19617;SDS011;9956;51.006;13.670;2023-11-19T03:57:46;3.22;;;2.92;;
19617;SDS011;9956;51.006;13.670;2023-11-19T04:02:48;6.63;;;3.85;;
19617;SDS011;9956;51.006;13.670;2023-11-19T04:07:52;4.88;;;4.10;;
19617;SDS011;9956;51.006;13.670;2023-11-19T04:12:52;5.07;;;3.90;;
19617;SDS011;9956;51.006;13.670;2023-11-19T04:17:53;2.83;;;2.55;;
19617;SDS011;9956;51.006;13.670;2023-11-19T04:22:55;3.47;;;2.60;;
19617;SDS011;9956;51.006;13.670;2023-11-19T04:27:56;2.92;;;2.58;;
19617;SDS011;9956;51.006;13.670;2023-11-19T04:32:56;3.47;;;2.88;;
19617;SDS011;9956;51.006;13.670;2023-11-19T04:37:57;2.83;;;2.63;;
19617;SDS011;9956;51.006;13.670;2023-11-19T04:42:58;3.83;;;2.83;;
19617;SDS011;9956;51.006;13.670;2023-11-19T04:47:58;3.65;;;2.85;;
19617;SDS011;9956;51.006;13.670;2023-11-19T04:52:59;10.13;;;3.90;;
19617;SDS011;9956;51.006;13.670;2023-11-19T04:57:59;6.03;;;4.30;;
19617;SDS011;9956;51.006;13.670;2023-11-19T05:03:00;4.28;;;3.88;;
19617;SDS011;9956;51.006;13.670;2023-11-19T05:08:00;5.60;;;4.50;;
19617;SDS011;9956;51.006;13.670;2023-11-19T05:13:01;6.30;;;4.55;;
19617;SDS011;9956;51.006;13.670;2023-11-19T05:18:02;6.22;;;4.88;;
19617;SDS011;9956;51.006;13.670;2023-11-19T05:23:02;7.95;;;5.65;;
19617;SDS011;9956;51.006;13.670;2023-11-19T05:28:03;7.00;;;5.13;;
19617;SDS011;9956;51.006;13.670;2023-11-19T05:33:03;8.77;;;5.13;;
19617;SDS011;9956;51.006;13.670;2023-11-19T05:38:04;5.10;;;4.55;;
19617;SDS011;9956;51.006;13.670;2023-11-19T05:43:06;6.75;;;4.38;;
19617;SDS011;9956;51.006;13.670;2023-11-19T05:48:06;5.07;;;3.75;;
19617;SDS011;9956;51.006;13.670;2023-11-19T05:53:07;5.00;;;3.38;;
19617;SDS011;9956;51.006;13.670;2023-11-19T05:58:10;3.15;;;2.85;;
19617;SDS011;9956;51.006;13.670;2023-11-19T06:03:12;5.38;;;3.42;;
19617;SDS011;9956;51.006;13.670;2023-11-19T06:08:12;3.28;;;2.78;;
19617;SDS011;9956;51.006;13.670;2023-11-19T06:13:13;4.65;;;3.10;;
19617;SDS011;9956;51.006;13.670;2023-11-19T06:18:15;6.85;;;3.85;;
19617;SDS011;9956;51.006;13.670;2023-11-19T06:23:16;4.10;;;3.38;;
19617;SDS011;9956;51.006;13.670;2023-11-19T06:28:16;5.32;;;3.50;;
19617;SDS011;9956;51.006;13.670;2023-11-19T06:33:17;3.08;;;2.22;;
19617;SDS011;9956;51.006;13.670;2023-11-19T06:38:17;2.53;;;2.00;;
19617;SDS011;9956;51.006;13.670;2023-11-19T06:43:18;4.35;;;3.15;;
19617;SDS011;9956;51.006;13.670;2023-11-19T06:48:18;4.63;;;3.53;;
19617;SDS011;9956;51.006;13.670;2023-11-19T06:53:18;2.83;;;2.60;;
19617;SDS011;9956;51.006;13.670;2023-11-19T06:58:19;3.72;;;2.95;;
19617;SDS011;9956;51.006;13.670;2023-11-19T07:03:19;2.85;;;1.45;;
19617;SDS011;9956;51.006;13.670;2023-11-19T07:08:21;3.47;;;1.27;;
19617;SDS011;9956;51.006;13.670;2023-11-19T07:13:21;1.52;;;1.20;;
19617;SDS011;9956;51.006;13.670;2023-11-19T07:18:22;4.05;;;3.58;;
19617;SDS011;9956;51.006;13.670;2023-11-19T07:23:22;9.80;;;7.10;;
19617;SDS011;9956;51.006;13.670;2023-11-19T07:28:23;5.05;;;4.22;;
19617;SDS011;9956;51.006;13.670;2023-11-19T07:33:23;8.98;;;6.43;;
19617;SDS011;9956;51.006;13.670;2023-11-19T07:38:23;5.53;;;4.75;;
19617;SDS011;9956;51.006;13.670;2023-11-19T07:43:24;0.80;;;0.80;;
19617;SDS011;9956;51.006;13.670;2023-11-19T07:48:25;3.80;;;2.30;;
19617;SDS011;9956;51.006;13.670;2023-11-19T07:53:26;6.43;;;4.80;;
19617;SDS011;9956;51.006;13.670;2023-11-19T07:58:26;1.40;;;1.15;;
19617;SDS011;9956;51.006;13.670;2023-11-19T08:03:27;1.13;;;0.82;;
19617;SDS011;9956;51.006;13.670;2023-11-19T08:08:27;1.15;;;1.05;;
19617;SDS011;9956;51.006;13.670;2023-11-19T08:13:47;1.00;;;0.90;;
19617;SDS011;9956;51.006;13.670;2023-11-19T08:18:47;1.23;;;1.00;;
19617;SDS011;9956;51.006;13.670;2023-11-19T08:23:48;1.35;;;1.25;;
19617;SDS011;9956;51.006;13.670;2023-11-19T08:28:48;1.40;;;0.90;;
19617;SDS011;9956;51.006;13.670;2023-11-19T08:33:49;3.20;;;2.22;;
19617;SDS011;9956;51.006;13.670;2023-11-19T08:38:49;2.08;;;0.88;;
19617;SDS011;9956;51.006;13.670;2023-11-19T08:43:51;5.22;;;0.90;;
19617;SDS011;9956;51.006;13.670;2023-11-19T08:48:52;0.63;;;0.60;;
19617;SDS011;9956;51.006;13.670;2023-11-19T08:59:37;3.80;;;0.82;;
19617;SDS011;9956;51.006;13.670;2023-11-19T09:04:38;3.03;;;1.48;;
19617;SDS011;9956;51.006;13.670;2023-11-19T09:09:39;5.38;;;1.23;;
19617;SDS011;9956;51.006;13.670;2023-11-19T09:14:40;2.25;;;1.10;;
19617;SDS011;9956;51.006;13.670;2023-11-19T09:19:42;3.80;;;1.20;;
19617;SDS011;9956;51.006;13.670;2023-11-19T09:24:42;6.80;;;1.45;;
19617;SDS011;9956;51.006;13.670;2023-11-19T09:29:45;3.45;;;1.33;;
19617;SDS011;9956;51.006;13.670;2023-11-19T09:34:46;3.65;;;2.42;;
19617;SDS011;9956;51.006;13.670;2023-11-19T09:39:47;4.32;;;1.63;;
19617;SDS011;9956;51.006;13.670;2023-11-19T09:44:47;2.05;;;1.55;;
19617;SDS011;9956;51.006;13.670;2023-11-19T09:49:48;2.53;;;1.30;;
19617;SDS011;9956;51.006;13.670;2023-11-19T09:54:49;4.45;;;1.40;;
19617;SDS011;9956;51.006;13.670;2023-11-19T09:59:49;5.80;;;1.20;;
19617;SDS011;9956;51.006;13.670;2023-11-19T10:04:50;3.65;;;1.50;;
19617;SDS011;9956;51.006;13.670;2023-11-19T10:09:51;3.42;;;1.50;;
19617;SDS011;9956;51.006;13.670;2023-11-19T10:14:51;2.75;;;1.27;;
19617;SDS011;9956;51.006;13.670;2023-11-19T10:19:53;3.67;;;1.33;;
19617;SDS011;9956;51.006;13.670;2023-11-19T10:24:54;5.15;;;1.42;;
19617;SDS011;9956;51.006;13.670;2023-11-19T10:29:54;6.68;;;1.42;;
19617;SDS011;9956;51.006;13.670;2023-11-19T10:35:05;2.42;;;1.48;;
19617;SDS011;9956;51.006;13.670;2023-11-19T10:40:09;5.30;;;2.25;;
19617;SDS011;9956;51.006;13.670;2023-11-19T10:45:22;3.33;;;1.85;;
19617;SDS011;9956;51.006;13.670;2023-11-19T10:50:24;1.92;;;1.00;;
19617;SDS011;9956;51.006;13.670;2023-11-19T10:55:26;1.98;;;0.90;;
19617;SDS011;9956;51.006;13.670;2023-11-19T11:00:30;3.50;;;0.98;;
19617;SDS011;9956;51.006;13.670;2023-11-19T11:05:34;1.98;;;0.60;;
19617;SDS011;9956;51.006;13.670;2023-11-19T11:10:39;1.00;;;0.73;;
19617;SDS011;9956;51.006;13.670;2023-11-19T11:15:41;2.60;;;0.90;;
19617;SDS011;9956;51.006;13.670;2023-11-19T11:20:43;1.92;;;0.90;;
19617;SDS011;9956;51.006;13.670;2023-11-19T11:25:49;3.08;;;1.40;;
19617;SDS011;9956;51.006;13.670;2023-11-19T11:31:15;3.95;;;1.00;;
19617;SDS011;9956;51.006;13.670;2023-11-19T11:36:26;3.67;;;1.00;;
19617;SDS011;9956;51.006;13.670;2023-11-19T11:41:27;2.22;;;0.60;;
19617;SDS011;9956;51.006;13.670;2023-11-19T11:57:01;2.60;;;0.98;;
19617;SDS011;9956;51.006;13.670;2023-11-19T12:02:13;4.55;;;1.52;;
19617;SDS011;9956;51.006;13.670;2023-11-19T12:07:17;2.88;;;1.33;;
19617;SDS011;9956;51.006;13.670;2023-11-19T12:12:20;4.65;;;1.35;;
19617;SDS011;9956;51.006;13.670;2023-11-19T12:22:37;6.32;;;1.70;;
19617;SDS011;9956;51.006;13.670;2023-11-19T12:27:39;4.22;;;1.60;;
19617;SDS011;9956;51.006;13.670;2023-11-19T12:32:41;6.85;;;2.00;;
19617;SDS011;9956;51.006;13.670;2023-11-19T12:37:46;10.75;;;2.30;;
19617;SDS011;9956;51.006;13.670;2023-11-19T12:42:51;8.23;;;1.58;;
19617;SDS011;9956;51.006;13.670;2023-11-19T12:48:06;7.05;;;1.67;;
19617;SDS011;9956;51.006;13.670;2023-11-19T12:53:07;9.13;;;2.50;;
19617;SDS011;9956;51.006;13.670;2023-11-19T12:58:07;6.95;;;2.30;;
19617;SDS011;9956;51.006;13.670;2023-11-19T13:03:08;4.40;;;1.67;;
19617;SDS011;9956;51.006;13.670;2023-11-19T13:08:08;7.60;;;2.08;;
19617;SDS011;9956;51.006;13.670;2023-11-19T13:13:09;8.95;;;1.65;;
19617;SDS011;9956;51.006;13.670;2023-11-19T13:18:10;8.70;;;2.05;;
19617;SDS011;9956;51.006;13.670;2023-11-19T13:23:10;9.70;;;3.58;;
19617;SDS011;9956;51.006;13.670;2023-11-19T13:28:11;8.00;;;1.92;;
19617;SDS011;9956;51.006;13.670;2023-11-19T13:33:11;7.25;;;2.53;;
19617;SDS011;9956;51.006;13.670;2023-11-19T13:38:13;10.93;;;3.28;;
19617;SDS011;9956;51.006;13.670;2023-11-19T13:43:13;6.32;;;1.73;;
19617;SDS011;9956;51.006;13.670;2023-11-19T13:48:14;8.07;;;2.58;;
19617;SDS011;9956;51.006;13.670;2023-11-19T13:53:14;7.13;;;2.22;;
19617;SDS011;9956;51.006;13.670;2023-11-19T13:58:15;9.27;;;3.00;;
19617;SDS011;9956;51.006;13.670;2023-11-19T14:03:16;9.13;;;2.88;;
19617;SDS011;9956;51.006;13.670;2023-11-19T14:08:16;9.75;;;3.15;;
19617;SDS011;9956;51.006;13.670;2023-11-19T14:13:17;7.97;;;2.40;;
19617;SDS011;9956;51.006;13.670;2023-11-19T14:18:17;10.30;;;2.65;;
19617;SDS011;9956;51.006;13.670;2023-11-19T14:23:18;9.93;;;2.65;;
19617;SDS011;9956;51.006;13.670;2023-11-19T14:28:18;10.27;;;2.75;;
19617;SDS011;9956;51.006;13.670;2023-11-19T14:33:19;10.73;;;3.10;;
19617;SDS011;9956;51.006;13.670;2023-11-19T14:38:20;9.88;;;2.85;;
19617;SDS011;9956;51.006;13.670;2023-11-19T14:43:20;7.90;;;2.70;;
19617;SDS011;9956;51.006;13.670;2023-11-19T14:48:21;11.15;;;2.58;;
19617;SDS011;9956;51.006;13.670;2023-11-19T14:53:21;9.25;;;2.38;;
19617;SDS011;9956;51.006;13.670;2023-11-19T14:58:22;9.02;;;3.10;;
19617;SDS011;9956;51.006;13.670;2023-11-19T15:03:23;8.85;;;2.47;;
19617;SDS011;9956;51.006;13.670;2023-11-19T15:08:23;7.65;;;2.60;;
19617;SDS011;9956;51.006;13.670;2023-11-19T15:13:24;8.77;;;2.92;;
19617;SDS011;9956;51.006;13.670;2023-11-19T15:18:24;10.52;;;3.05;;
19617;SDS011;9956;51.006;13.670;2023-11-19T15:23:25;14.00;;;2.80;;
19617;SDS011;9956;51.006;13.670;2023-11-19T15:28:25;12.75;;;2.80;;
19617;SDS011;9956;51.006;13.670;2023-11-19T15:33:26;16.63;;;3.15;;
19617;SDS011;9956;51.006;13.670;2023-11-19T15:38:26;8.63;;;2.55;;
19617;SDS011;9956;51.006;13.670;2023-11-19T15:43:27;10.57;;;3.03;;
19617;SDS011;9956;51.006;13.670;2023-11-19T15:48:27;8.38;;;2.75;;
19617;SDS011;9956;51.006;13.670;2023-11-19T15:53:30;9.38;;;3.00;;
19617;SDS011;9956;51.006;13.670;2023-11-19T15:58:31;12.07;;;3.50;;
19617;SDS011;9956;51.006;13.670;2023-11-19T16:03:33;13.23;;;2.53;;
19617;SDS011;9956;51.006;13.670;2023-11-19T16:08:33;5.78;;;2.25;;
19617;SDS011;9956;51.006;13.670;2023-11-19T16:13:34;10.13;;;2.72;;
19617;SDS011;9956;51.006;13.670;2023-11-19T16:18:34;9.48;;;2.67;;
19617;SDS011;9956;51.006;13.670;2023-11-19T16:23:35;10.35;;;2.85;;
19617;SDS011;9956;51.006;13.670;2023-11-19T16:28:35;9.23;;;3.58;;
19617;SDS011;9956;51.006;13.670;2023-11-19T16:33:36;8.98;;;2.50;;
19617;SDS011;9956;51.006;13.670;2023-11-19T16:38:36;12.02;;;3.03;;
19617;SDS011;9956;51.006;13.670;2023-11-19T16:43:36;7.72;;;2.17;;
19617;SDS011;9956;51.006;13.670;2023-11-19T16:48:37;14.48;;;2.90;;
19617;SDS011;9956;51.006;13.670;2023-11-19T16:53:37;10.73;;;3.25;;
19617;SDS011;9956;51.006;13.670;2023-11-19T16:58:38;7.70;;;2.30;;
19617;SDS011;9956;51.006;13.670;2023-11-19T17:03:43;12.75;;;2.42;;
19617;SDS011;9956;51.006;13.670;2023-11-19T17:08:44;7.22;;;2.60;;
19617;SDS011;9956;51.006;13.670;2023-11-19T17:13:44;7.05;;;2.80;;
19617;SDS011;9956;51.006;13.670;2023-11-19T17:18:45;13.15;;;3.42;;
19617;SDS011;9956;51.006;13.670;2023-11-19T17:23:45;9.93;;;2.85;;
19617;SDS011;9956;51.006;13.670;2023-11-19T17:28:47;9.45;;;2.97;;
19617;SDS011;9956;51.006;13.670;2023-11-19T17:33:47;7.65;;;2.30;;
19617;SDS011;9956;51.006;13.670;2023-11-19T17:38:48;8.43;;;2.50;;
19617;SDS011;9956;51.006;13.670;2023-11-19T17:43:48;8.77;;;3.38;;
19617;SDS011;9956;51.006;13.670;2023-11-19T17:48:51;18.05;;;3.00;;
19617;SDS011;9956;51.006;13.670;2023-11-19T17:53:52;8.02;;;2.50;;
19617;SDS011;9956;51.006;13.670;2023-11-19T17:58:52;10.82;;;2.72;;
19617;SDS011;9956;51.006;13.670;2023-11-19T18:03:53;14.98;;;3.85;;
19617;SDS011;9956;51.006;13.670;2023-11-19T18:08:53;8.55;;;2.72;;
19617;SDS011;9956;51.006;13.670;2023-11-19T18:13:54;7.30;;;2.65;;
19617;SDS011;9956;51.006;13.670;2023-11-19T18:18:55;5.85;;;2.17;;
19617;SDS011;9956;51.006;13.670;2023-11-19T18:23:55;9.77;;;3.30;;
19617;SDS011;9956;51.006;13.670;2023-11-19T18:28:56;8.20;;;2.40;;
19617;SDS011;9956;51.006;13.670;2023-11-19T18:33:56;7.78;;;2.33;;
19617;SDS011;9956;51.006;13.670;2023-11-19T18:38:57;8.50;;;2.17;;
19617;SDS011;9956;51.006;13.670;2023-11-19T18:43:57;13.15;;;2.78;;
19617;SDS011;9956;51.006;13.670;2023-11-19T18:48:58;7.25;;;2.33;;
19617;SDS011;9956;51.006;13.670;2023-11-19T18:53:59;6.38;;;2.35;;
19617;SDS011;9956;51.006;13.670;2023-11-19T18:58:59;8.52;;;2.53;;
19617;SDS011;9956;51.006;13.670;2023-11-19T19:04:00;10.32;;;2.80;;
19617;SDS011;9956;51.006;13.670;2023-11-19T19:09:01;6.15;;;2.92;;
19617;SDS011;9956;51.006;13.670;2023-11-19T19:14:01;6.40;;;2.55;;
19617;SDS011;9956;51.006;13.670;2023-11-19T19:19:02;7.10;;;3.05;;
19617;SDS011;9956;51.006;13.670;2023-11-19T19:24:04;9.40;;;3.58;;
19617;SDS011;9956;51.006;13.670;2023-11-19T19:29:08;9.48;;;4.13;;
19617;SDS011;9956;51.006;13.670;2023-11-19T19:34:09;10.82;;;3.35;;
19617;SDS011;9956;51.006;13.670;2023-11-19T19:39:09;8.25;;;3.88;;
19617;SDS011;9956;51.006;13.670;2023-11-19T19:44:14;7.18;;;3.45;;
19617;SDS011;9956;51.006;13.670;2023-11-19T19:49:15;9.27;;;3.35;;
19617;SDS011;9956;51.006;13.670;2023-11-19T19:54:16;7.10;;;3.22;;
19617;SDS011;9956;51.006;13.670;2023-11-19T19:59:17;10.55;;;2.92;;
19617;SDS011;9956;51.006;13.670;2023-11-19T20:04:19;13.25;;;3.67;;
19617;SDS011;9956;51.006;13.670;2023-11-19T20:09:19;8.18;;;2.33;;
19617;SDS011;9956;51.006;13.670;2023-11-19T20:14:22;8.25;;;2.10;;
19617;SDS011;9956;51.006;13.670;2023-11-19T20:19:29;10.73;;;2.50;;
19617;SDS011;9956;51.006;13.670;2023-11-19T20:24:30;6.38;;;2.17;;
19617;SDS011;9956;51.006;13.670;2023-11-19T20:29:31;8.48;;;2.45;;
19617;SDS011;9956;51.006;13.670;2023-11-19T20:34:31;7.78;;;2.10;;
19617;SDS011;9956;51.006;13.670;2023-11-19T20:39:32;9.73;;;2.70;;
19617;SDS011;9956;51.006;13.670;2023-11-19T20:44:32;8.93;;;2.30;;
19617;SDS011;9956;51.006;13.670;2023-11-19T20:49:33;5.32;;;1.83;;
19617;SDS011;9956;51.006;13.670;2023-11-19T20:54:33;9.88;;;2.22;;
19617;SDS011;9956;51.006;13.670;2023-11-19T20:59:34;7.35;;;2.08;;
19617;SDS011;9956;51.006;13.670;2023-11-19T21:04:34;8.30;;;2.50;;
19617;SDS011;9956;51.006;13.670;2023-11-19T21:09:35;5.65;;;1.88;;
19617;SDS011;9956;51.006;13.670;2023-11-19T21:14:35;6.60;;;1.67;;
19617;SDS011;9956;51.006;13.670;2023-11-19T21:19:36;7.85;;;2.15;;
19617;SDS011;9956;51.006;13.670;2023-11-19T21:24:36;7.65;;;1.83;;
19617;SDS011;9956;51.006;13.670;2023-11-19T21:29:37;5.72;;;1.88;;
19617;SDS011;9956;51.006;13.670;2023-11-19T21:34:37;8.57;;;2.30;;
19617;SDS011;9956;51.006;13.670;2023-11-19T21:39:39;7.10;;;2.20;;
19617;SDS011;9956;51.006;13.670;2023-11-19T21:44:39;4.70;;;1.95;;
19617;SDS011;9956;51.006;13.670;2023-11-19T21:49:40;9.73;;;1.95;;
19617;SDS011;9956;51.006;13.670;2023-11-19T21:54:41;7.00;;;2.03;;
19617;SDS011;9956;51.006;13.670;2023-11-19T21:59:41;6.93;;;1.83;;
19617;SDS011;9956;51.006;13.670;2023-11-19T22:04:41;8.23;;;1.90;;
19617;SDS011;9956;51.006;13.670;2023-11-19T22:09:42;7.65;;;2.72;;
19617;SDS011;9956;51.006;13.670;2023-11-19T22:14:43;9.52;;;2.05;;
19617;SDS011;9956;51.006;13.670;2023-11-19T22:19:43;5.80;;;1.83;;
19617;SDS011;9956;51.006;13.670;2023-11-19T22:24:46;9.35;;;2.40;;
19617;SDS011;9956;51.006;13.670;2023-11-19T22:29:46;9.10;;;2.35;;
19617;SDS011;9956;51.006;13.670;2023-11-19T22:34:47;7.15;;;1.90;;
19617;SDS011;9956;51.006;13.670;2023-11-19T22:39:47;9.98;;;2.78;;
19617;SDS011;9956;51.006;13.670;2023-11-19T22:44:48;6.00;;;1.73;;
19617;SDS011;9956;51.006;13.670;2023-11-19T22:49:48;10.57;;;2.10;;
19617;SDS011;9956;51.006;13.670;2023-11-19T22:54:49;7.13;;;2.28;;
19617;SDS011;9956;51.006;13.670;2023-11-19T22:59:49;5.82;;;1.92;;
19617;SDS011;9956;51.006;13.670;2023-11-19T23:04:50;6.00;;;2.40;;
19617;SDS011;9956;51.006;13.670;2023-11-19T23:09:50;6.30;;;1.95;;
19617;SDS011;9956;51.006;13.670;2023-11-19T23:14:51;7.80;;;2.58;;
19617;SDS011;9956;51.006;13.670;2023-11-19T23:19:51;8.65;;;3.60;;
19617;SDS011;9956;51.006;13.670;2023-11-19T23:24:52;10.93;;;2.80;;
19617;SDS011;9956;51.006;13.670;2023-11-19T23:29:53;6.25;;;1.73;;
19617;SDS011;9956;51.006;13.670;2023-11-19T23:34:53;7.47;;;2.15;;
19617;SDS011;9956;51.006;13.670;2023-11-19T23:39:54;9.10;;;2.35;;
19617;SDS011;9956;51.006;13.670;2023-11-19T23:44:55;8.98;;;2.35;;
19617;SDS011;9956;51.006;13.670;2023-11-19T23:49:56;9.68;;;2.42;;
19617;SDS011;9956;51.006;13.670;2023-11-19T23:54:57;7.28;;;2.15;;
19617;SDS011;9956;51.006;13.670;2023-11-19T23:59:59;7.95;;;2.83;;
